Orderville, UT (84758)

11:27 PM MDT on October 22, 2014 (GMT -0600)
RAWS KFO PORTABLE 1 UT US | Change Station
CLOSE
Current Station
Personal Weather Station
Location: Mount Carmel, UT
Elevation: 5943 ft
Nearby Weather Stations

Elev 5943 ft 37.04 °N, 112.73 °W | Updated 57 minutes ago

Clear
Clear
44 °F
Feels Like 44 °F
N
2
Wind Variable Wind from NNW
Gusts 3.0 mph

Today
High -- | Low -- °F
--% Chance of Precip.
Yesterday
High -- | Low -- °F
Precip. -- in
7:45 AM 6:44 PM
Waning Crescent, 0% visible
Pressure 30.22 in
Visibility 10.0 miles
Clouds Clear
Windchill 44 °F
Dew Point 23 °F
Humidity 44%
Rainfall 0.00 in
Snow Depth 1 in
UV 0 out of 12
Pollen 3.30 out of 12
Air Quality Not available.
Flu Activity Sporadic
METAR KAZC 230515Z AUTO 14003KT 10SM CLR 07/00 A3022 RMK AO2 T00670000

More Conditions Fewer Conditions

Pressure 30.22 in
Visibility 10.0 miles
Clouds Clear
Windchill 44 °F
Dew Point 23 °F
Humidity 44%
Rainfall 0.00 in
Snow Depth 1 in
UV 0 out of 12
Pollen 3.30 out of 12
Air Quality Not available.
Flu Activity Sporadic
METAR KAZC 230515Z AUTO 14003KT 10SM CLR 07/00 A3022 RMK AO2 T00670000

More Conditions Fewer Conditions

10-Day Weather Forecast

Almanac

Astronomy

Oct. 22, 2014 Rise Set
Actual Time 7:45 AM MDT 6:44 PM MDT
Civil Twilight 7:19 AM MDT 7:11 PM MDT
Nautical Twilight 6:48 AM MDT 7:41 PM MDT
Astronomical Twilight 6:18 AM MDT 8:11 PM MDT
Moon 6:32 AM MDT (10/22) 6:12 PM MDT (10/22)
Length of Visible Light 11h 52m
Length of Day
10h 59m
Tomorrow will be 2m 14s shorter.
Waning Crescent, 0% of the Moon is Illuminated
Oct 23
Waning Crescent
Oct 23
New
Oct 30
First Quarter
Nov 6
Full
Nov 14
Last Quarter

Yesterday's Extremes

State Highs State Lows

Community

WunderPhotos

Upload Photos

1,764,170 photos uploaded!

Nearby

Snow Depth

Station Depth Elevation
Long Valley Jct 1 in 7360 ft
Agua Canyon 0 in 8900 ft
Clayton Springs 0 in 10000 ft
Big Flat 0 in 10290 ft
Kimberly Mine 0 in 9300 ft

Earthquake Activity

City Distance Mag. Time & Date
Ferron, Utah 137 miles 2.5 10:53 PM MDT
2014-10-21
Minimum magnitude displayed is 2.5.

Coastal Water Temperatures

Place Temperature
No Stations Reporting

Nearby Weather Stations